createdAt,value
2019-03-16T00:00:20.764Z,9.95
2019-03-16T00:00:46.878Z,9.94
2019-03-16T00:01:13.033Z,9.99
2019-03-16T00:01:39.103Z,10.02
2019-03-16T00:02:08.083Z,9.89
2019-03-16T00:02:34.186Z,9.82
2019-03-16T00:03:00.314Z,9.91
2019-03-16T00:03:26.429Z,9.94
2019-03-16T00:03:52.532Z,9.97
2019-03-16T00:04:18.647Z,9.97
2019-03-16T00:04:44.748Z,9.99
2019-03-16T00:05:10.863Z,9.97
2019-03-16T00:05:36.970Z,9.99
2019-03-16T00:06:03.081Z,9.95
2019-03-16T00:06:29.216Z,9.97
2019-03-16T00:06:55.329Z,9.97
2019-03-16T00:07:32.368Z,10.01
2019-03-16T00:07:49.580Z,9.99
2019-03-16T00:08:15.659Z,9.95
2019-03-16T00:08:41.766Z,9.92
2019-03-16T00:09:07.879Z,9.95
2019-03-16T00:09:33.990Z,9.98
2019-03-16T00:10:00.122Z,10.02
2019-03-16T00:10:26.401Z,9.98
2019-03-16T00:10:52.511Z,10.02
2019-03-16T00:11:18.619Z,9.98
2019-03-16T00:11:44.815Z,10.02
2019-03-16T00:12:11.209Z,10.04
2019-03-16T00:12:37.318Z,10.07
2019-03-16T00:13:03.430Z,10.05
2019-03-16T00:13:30.561Z,10.05
2019-03-16T00:13:56.692Z,10.09
2019-03-16T00:14:22.831Z,10.04
2019-03-16T00:14:48.962Z,10.04
2019-03-16T00:15:15.080Z,10.1
2019-03-16T00:15:41.183Z,10.07
2019-03-16T00:16:07.290Z,10.04
2019-03-16T00:16:33.394Z,10.09
2019-03-16T00:16:59.510Z,9.95
2019-03-16T00:17:26.626Z,10.02
2019-03-16T00:17:52.733Z,10.02
2019-03-16T00:18:18.844Z,9.97
2019-03-16T00:18:44.976Z,10.01
2019-03-16T00:19:11.086Z,10.01
2019-03-16T00:19:37.247Z,10.04
2019-03-16T00:20:03.358Z,10.07
2019-03-16T00:20:29.474Z,10.04
2019-03-16T00:20:55.581Z,9.95
2019-03-16T00:21:21.683Z,10.02
2019-03-16T00:21:47.800Z,10.04
2019-03-16T00:22:13.941Z,9.99
2019-03-16T00:22:40.054Z,9.97
2019-03-16T00:23:06.152Z,9.97
2019-03-16T00:23:32.269Z,9.98
2019-03-16T00:23:58.376Z,10.01
2019-03-16T00:24:24.483Z,9.98
2019-03-16T00:24:50.587Z,9.97
2019-03-16T00:25:16.722Z,10.05
2019-03-16T00:25:42.831Z,10.04
2019-03-16T00:26:08.974Z,10.02
2019-03-16T00:26:35.084Z,9.99
2019-03-16T00:27:01.188Z,9.95
2019-03-16T00:27:27.289Z,10.02
2019-03-16T00:27:53.399Z,10.1
2019-03-16T00:28:19.506Z,10.1
2019-03-16T00:28:45.632Z,10.09
2019-03-16T00:29:11.726Z,10.16
2019-03-16T00:29:37.833Z,10.04
2019-03-16T00:30:03.947Z,10.01
2019-03-16T00:30:30.085Z,9.82
2019-03-16T00:30:56.255Z,9.79
2019-03-16T00:31:22.309Z,9.83
2019-03-16T00:31:48.415Z,9.84
2019-03-16T00:32:16.507Z,9.82
2019-03-16T00:32:42.613Z,9.84
2019-03-16T00:33:08.725Z,9.99
2019-03-16T00:33:34.861Z,9.82
2019-03-16T00:34:00.976Z,9.79
2019-03-16T00:34:27.088Z,9.77
2019-03-16T00:34:53.204Z,9.82
2019-03-16T00:35:19.292Z,9.79
2019-03-16T00:35:45.404Z,9.87
2019-03-16T00:36:11.517Z,9.84
2019-03-16T00:36:37.625Z,9.84
2019-03-16T00:37:03.756Z,9.92
2019-03-16T00:37:29.902Z,9.83
2019-03-16T00:37:56.008Z,9.95
2019-03-16T00:38:23.407Z,9.89
2019-03-16T00:38:49.237Z,9.86
2019-03-16T00:39:15.352Z,9.84
2019-03-16T00:39:41.488Z,9.84
2019-03-16T00:40:07.597Z,9.91
2019-03-16T00:40:33.709Z,9.95
2019-03-16T00:40:59.846Z,9.98
2019-03-16T00:41:25.953Z,10.02
2019-03-16T00:41:52.106Z,9.98
2019-03-16T00:42:18.212Z,9.97
2019-03-16T00:42:44.318Z,9.84
2019-03-16T00:43:10.490Z,9.84
2019-03-16T00:43:36.607Z,9.94
2019-03-16T00:44:02.714Z,9.87
2019-03-16T00:44:28.823Z,9.89
2019-03-16T00:44:54.937Z,9.94
2019-03-16T00:45:21.381Z,9.92
2019-03-16T00:45:47.532Z,9.86
2019-03-16T00:46:13.634Z,9.82
2019-03-16T00:46:39.748Z,9.82
2019-03-16T00:47:05.878Z,9.84
2019-03-16T00:47:31.982Z,9.82
2019-03-16T00:47:58.090Z,9.92
2019-03-16T00:48:24.222Z,9.91
2019-03-16T00:48:50.339Z,9.97
2019-03-16T00:49:16.444Z,9.94
2019-03-16T00:49:42.557Z,9.92
2019-03-16T00:50:08.660Z,9.82
2019-03-16T00:50:34.769Z,9.83
2019-03-16T00:51:00.876Z,9.82
2019-03-16T00:51:27.027Z,9.82
2019-03-16T00:51:53.162Z,9.91
2019-03-16T00:52:19.272Z,9.82
2019-03-16T00:52:45.375Z,9.97
2019-03-16T00:53:11.482Z,9.83
2019-03-16T00:53:37.592Z,9.92
2019-03-16T00:54:03.699Z,9.82
2019-03-16T00:54:29.807Z,9.91
2019-03-16T00:54:55.919Z,10.04
2019-03-16T00:55:22.030Z,9.98
2019-03-16T00:55:48.129Z,9.84
2019-03-16T00:56:14.244Z,9.97
2019-03-16T00:56:40.351Z,9.86
2019-03-16T00:57:06.461Z,9.84
2019-03-16T00:57:32.567Z,9.82
2019-03-16T00:57:58.672Z,9.83
2019-03-16T00:58:24.787Z,9.83
2019-03-16T00:58:50.888Z,9.91
2019-03-16T00:59:17.003Z,9.99
2019-03-16T00:59:43.135Z,9.95
2019-03-16T01:00:09.246Z,9.97
2019-03-16T01:00:35.352Z,9.98
2019-03-16T01:01:01.514Z,9.99
2019-03-16T01:01:27.627Z,9.99
2019-03-16T01:01:53.750Z,10.02
2019-03-16T01:02:26.766Z,9.98
2019-03-16T01:02:48.726Z,9.95
2019-03-16T01:03:14.834Z,9.97
2019-03-16T01:03:40.949Z,9.82
2019-03-16T01:04:07.059Z,9.83
2019-03-16T01:04:33.357Z,9.87
2019-03-16T01:04:59.467Z,9.91
2019-03-16T01:05:25.576Z,9.82
2019-03-16T01:05:51.718Z,9.77
2019-03-16T01:06:17.835Z,9.79
2019-03-16T01:06:43.934Z,9.76
2019-03-16T01:07:10.037Z,9.82
2019-03-16T01:07:36.143Z,9.69
2019-03-16T01:08:02.260Z,9.83
2019-03-16T01:08:28.366Z,9.84
2019-03-16T01:08:54.480Z,9.79
2019-03-16T01:09:20.585Z,9.77
2019-03-16T01:09:46.720Z,9.79
2019-03-16T01:10:12.827Z,9.79
2019-03-16T01:10:38.973Z,9.83
2019-03-16T01:11:05.082Z,9.86
2019-03-16T01:11:31.195Z,9.77
2019-03-16T01:11:57.318Z,9.79
2019-03-16T01:12:23.478Z,9.86
2019-03-16T01:12:49.594Z,9.91
2019-03-16T01:13:15.704Z,9.91
2019-03-16T01:13:41.808Z,9.87
2019-03-16T01:14:07.919Z,9.86
2019-03-16T01:14:34.025Z,9.92
2019-03-16T01:15:00.131Z,9.82
2019-03-16T01:15:26.244Z,9.95
2019-03-16T01:15:52.355Z,9.98
2019-03-16T01:16:18.496Z,9.98
2019-03-16T01:16:44.597Z,9.95
2019-03-16T01:17:10.703Z,10.01
2019-03-16T01:17:36.822Z,9.98
2019-03-16T01:18:02.954Z,9.98
2019-03-16T01:18:29.068Z,9.99
2019-03-16T01:18:55.174Z,10.01
2019-03-16T01:19:21.283Z,9.98
2019-03-16T01:19:47.391Z,9.95
2019-03-16T01:20:13.496Z,9.95
2019-03-16T01:20:39.605Z,10.04
2019-03-16T01:21:05.746Z,10.02
2019-03-16T01:21:31.856Z,10.12
2019-03-16T01:21:57.963Z,10.01
2019-03-16T01:22:24.071Z,10.01
2019-03-16T01:22:50.183Z,9.99
2019-03-16T01:23:17.655Z,9.98
2019-03-16T01:23:43.385Z,9.83
2019-03-16T01:24:09.492Z,9.95
2019-03-16T01:24:35.603Z,9.86
2019-03-16T01:25:01.771Z,9.94
2019-03-16T01:25:27.907Z,9.98
2019-03-16T01:25:54.019Z,9.92
2019-03-16T01:26:20.189Z,9.86
2019-03-16T01:26:46.296Z,9.84
2019-03-16T01:27:12.410Z,10.04
2019-03-16T01:27:38.520Z,9.94
2019-03-16T01:28:04.628Z,9.99
2019-03-16T01:28:30.741Z,9.98
2019-03-16T01:28:56.844Z,9.98
2019-03-16T01:29:22.956Z,9.97
2019-03-16T01:29:49.070Z,9.91
2019-03-16T01:30:15.179Z,9.92
2019-03-16T01:30:41.285Z,9.92
2019-03-16T01:31:07.425Z,9.97
2019-03-16T01:31:33.534Z,9.83
2019-03-16T01:31:59.643Z,9.79
2019-03-16T01:32:25.751Z,9.77
2019-03-16T01:32:53.840Z,9.92
2019-03-16T01:33:19.994Z,9.97
2019-03-16T01:33:46.095Z,9.92
2019-03-16T01:34:12.204Z,9.95
2019-03-16T01:34:38.308Z,9.97
2019-03-16T01:35:05.304Z,9.83
2019-03-16T01:35:31.446Z,9.84
2019-03-16T01:35:57.545Z,9.86
2019-03-16T01:36:23.651Z,9.91
2019-03-16T01:36:49.805Z,9.83
2019-03-16T01:37:15.915Z,9.84
2019-03-16T01:37:42.017Z,9.98
2019-03-16T01:38:08.146Z,9.95
2019-03-16T01:38:34.264Z,9.94
2019-03-16T01:39:00.368Z,10.02
2019-03-16T01:39:26.477Z,9.95
2019-03-16T01:39:52.586Z,9.83
2019-03-16T01:40:18.690Z,9.87
2019-03-16T01:40:44.801Z,9.86
2019-03-16T01:41:10.909Z,9.92
2019-03-16T01:41:37.044Z,9.83
2019-03-16T01:42:03.157Z,9.83
2019-03-16T01:42:29.260Z,9.87
2019-03-16T01:42:55.373Z,9.83
2019-03-16T01:43:21.480Z,9.95
2019-03-16T01:43:47.591Z,9.8
2019-03-16T01:44:13.702Z,9.84
2019-03-16T01:44:39.811Z,9.89
2019-03-16T01:45:05.917Z,9.94
2019-03-16T01:45:32.059Z,9.95
2019-03-16T01:45:58.164Z,9.94
2019-03-16T01:46:24.300Z,9.83
2019-03-16T01:46:50.419Z,9.95
2019-03-16T01:47:16.540Z,9.92
2019-03-16T01:47:42.646Z,9.79
2019-03-16T01:48:08.755Z,9.83
2019-03-16T01:48:34.860Z,9.98
2019-03-16T01:49:00.970Z,9.97
2019-03-16T01:49:27.075Z,9.98
2019-03-16T01:49:53.180Z,10.01
2019-03-16T01:50:21.592Z,10.02
2019-03-16T01:50:45.479Z,10.01
2019-03-16T01:51:11.591Z,9.98
2019-03-16T01:51:37.699Z,10.02
2019-03-16T01:52:03.811Z,9.97
2019-03-16T01:52:29.916Z,9.98
2019-03-16T01:52:56.021Z,10.02
2019-03-16T01:53:22.137Z,9.97
2019-03-16T01:53:48.245Z,10.07
2019-03-16T01:54:14.388Z,9.99
2019-03-16T01:54:40.489Z,10.04
2019-03-16T01:55:06.597Z,10.04
2019-03-16T01:55:32.706Z,9.92
2019-03-16T01:55:58.881Z,9.83
2019-03-16T01:56:25.013Z,9.77
2019-03-16T01:56:51.120Z,9.79
2019-03-16T01:57:17.225Z,9.8
2019-03-16T01:57:43.332Z,9.83
2019-03-16T01:58:09.444Z,9.69
2019-03-16T01:58:35.572Z,9.62
2019-03-16T01:59:01.678Z,9.66
2019-03-16T01:59:27.784Z,9.65
2019-03-16T01:59:53.895Z,9.83
2019-03-16T02:00:20.030Z,9.87
2019-03-16T02:00:46.137Z,9.94
2019-03-16T02:01:12.282Z,9.84
2019-03-16T02:01:38.411Z,9.97
2019-03-16T02:02:05.140Z,9.95
2019-03-16T02:02:31.270Z,9.95
2019-03-16T02:02:59.393Z,9.83
2019-03-16T02:03:25.529Z,9.94
2019-03-16T02:03:51.643Z,9.83
2019-03-16T02:04:17.760Z,9.83
2019-03-16T02:04:43.859Z,9.8
2019-03-16T02:05:09.999Z,9.87
2019-03-16T02:05:36.135Z,9.84
2019-03-16T02:06:02.268Z,9.92
2019-03-16T02:06:28.381Z,9.99
2019-03-16T02:06:54.489Z,9.83
2019-03-16T02:07:20.591Z,9.8
2019-03-16T02:07:46.700Z,9.86
2019-03-16T02:08:12.812Z,9.8
2019-03-16T02:08:38.950Z,9.8
2019-03-16T02:09:05.058Z,9.82
2019-03-16T02:09:31.179Z,9.86
2019-03-16T02:09:57.280Z,9.79
2019-03-16T02:10:23.421Z,9.86
2019-03-16T02:10:49.530Z,9.86
2019-03-16T02:11:15.639Z,9.95
2019-03-16T02:11:41.746Z,9.89
2019-03-16T02:12:08.850Z,9.82
2019-03-16T02:12:34.949Z,9.82
2019-03-16T02:13:01.052Z,9.82
2019-03-16T02:13:27.168Z,9.76
2019-03-16T02:13:53.308Z,9.86
2019-03-16T02:14:19.424Z,9.89
2019-03-16T02:14:45.529Z,9.94
2019-03-16T02:15:11.664Z,9.83
2019-03-16T02:15:37.795Z,9.92
2019-03-16T02:16:10.618Z,9.84
2019-03-16T02:16:32.557Z,9.86
2019-03-16T02:16:58.668Z,9.83
2019-03-16T02:17:24.780Z,9.83
2019-03-16T02:17:50.880Z,9.83
2019-03-16T02:18:16.991Z,9.82
2019-03-16T02:18:43.097Z,9.79
2019-03-16T02:19:09.212Z,9.69
2019-03-16T02:19:36.018Z,9.62
2019-03-16T02:20:02.257Z,9.69
2019-03-16T02:20:28.359Z,9.65
2019-03-16T02:20:54.467Z,9.76
2019-03-16T02:21:20.573Z,9.74
2019-03-16T02:21:46.899Z,9.76
2019-03-16T02:22:13.239Z,9.79
2019-03-16T02:22:39.379Z,9.76
2019-03-16T02:23:05.524Z,9.72
2019-03-16T02:23:31.625Z,9.83
2019-03-16T02:23:57.735Z,9.73
2019-03-16T02:24:23.846Z,9.62
2019-03-16T02:24:49.955Z,9.61
2019-03-16T02:25:16.093Z,9.68
2019-03-16T02:25:42.203Z,9.66
2019-03-16T02:26:08.317Z,9.66
2019-03-16T02:26:34.434Z,9.56
2019-03-16T02:27:00.541Z,9.64
2019-03-16T02:27:26.650Z,9.72
2019-03-16T02:27:52.755Z,9.68
2019-03-16T02:28:18.866Z,9.59
2019-03-16T02:28:44.976Z,9.65
2019-03-16T02:29:11.089Z,9.59
2019-03-16T02:29:37.201Z,9.64
2019-03-16T02:30:03.313Z,9.66
2019-03-16T02:30:29.445Z,9.64
2019-03-16T02:30:55.559Z,9.59
2019-03-16T02:31:21.699Z,9.62
2019-03-16T02:31:47.810Z,9.72
2019-03-16T02:32:13.979Z,9.74
2019-03-16T02:32:40.120Z,9.72
2019-03-16T02:33:12.925Z,9.59
2019-03-16T02:33:35.398Z,9.72
2019-03-16T02:34:01.542Z,9.66
2019-03-16T02:34:27.731Z,9.74
2019-03-16T02:34:53.840Z,9.77
2019-03-16T02:35:19.952Z,9.77
2019-03-16T02:35:46.072Z,9.76
2019-03-16T02:36:12.307Z,9.73
2019-03-16T02:36:38.416Z,9.79
2019-03-16T02:37:04.551Z,9.76
2019-03-16T02:37:30.665Z,9.86
2019-03-16T02:37:56.769Z,9.82
2019-03-16T02:38:22.876Z,9.77
2019-03-16T02:38:49.009Z,9.76
2019-03-16T02:39:15.122Z,9.77
2019-03-16T02:39:41.225Z,9.77
2019-03-16T02:40:07.361Z,9.65
2019-03-16T02:40:33.466Z,9.64
2019-03-16T02:40:59.597Z,9.69
2019-03-16T02:41:25.702Z,9.76
2019-03-16T02:41:51.840Z,9.8
2019-03-16T02:42:17.988Z,9.79
2019-03-16T02:42:44.086Z,9.77
2019-03-16T02:43:10.301Z,9.83
2019-03-16T02:43:36.453Z,9.84
2019-03-16T02:44:02.586Z,9.86
2019-03-16T02:44:29.707Z,9.8
2019-03-16T02:44:55.815Z,9.74
2019-03-16T02:45:21.950Z,9.77
2019-03-16T02:45:48.092Z,9.74
2019-03-16T02:46:14.251Z,9.73
2019-03-16T02:46:40.353Z,9.68
2019-03-16T02:47:06.453Z,9.69
2019-03-16T02:47:32.627Z,9.77
2019-03-16T02:47:58.733Z,9.74
2019-03-16T02:48:24.897Z,9.76
2019-03-16T02:48:51.005Z,9.89
2019-03-16T02:49:17.141Z,9.89
2019-03-16T02:49:43.248Z,9.83
2019-03-16T02:50:09.387Z,9.8
2019-03-16T02:50:35.526Z,9.77
2019-03-16T02:51:01.659Z,9.79
2019-03-16T02:51:27.774Z,9.69
2019-03-16T02:51:53.881Z,9.77
2019-03-16T02:52:20.135Z,9.73
2019-03-16T02:52:49.453Z,9.76
2019-03-16T02:53:13.342Z,9.76
2019-03-16T02:53:39.451Z,9.8
2019-03-16T02:54:05.590Z,9.69
2019-03-16T02:54:31.691Z,9.8
2019-03-16T02:54:57.839Z,9.83
2019-03-16T02:55:23.975Z,9.79
2019-03-16T02:55:50.109Z,9.72
2019-03-16T02:56:16.254Z,9.69
2019-03-16T02:56:42.410Z,9.68
2019-03-16T02:57:08.525Z,9.61
2019-03-16T02:57:34.673Z,9.76
2019-03-16T02:58:00.813Z,9.69
2019-03-16T02:58:26.984Z,9.74
2019-03-16T02:58:53.196Z,9.68
2019-03-16T02:59:19.279Z,9.73
2019-03-16T02:59:45.383Z,9.74
2019-03-16T03:00:11.525Z,9.79
2019-03-16T03:00:37.732Z,9.73
2019-03-16T03:01:03.875Z,9.8
2019-03-16T03:01:29.977Z,9.69
2019-03-16T03:01:56.096Z,9.66
2019-03-16T03:02:22.230Z,9.65
2019-03-16T03:02:48.340Z,9.86
2019-03-16T03:03:28.352Z,9.82
2019-03-16T03:03:43.590Z,9.8
2019-03-16T03:04:09.675Z,9.8
2019-03-16T03:04:35.826Z,9.84
2019-03-16T03:05:02.495Z,9.8
2019-03-16T03:05:28.628Z,9.79
2019-03-16T03:05:54.736Z,9.62
2019-03-16T03:06:20.865Z,9.69
2019-03-16T03:06:47.052Z,9.68
2019-03-16T03:07:13.157Z,9.77
2019-03-16T03:07:39.265Z,9.72
2019-03-16T03:08:05.429Z,9.62
2019-03-16T03:08:31.548Z,9.51
2019-03-16T03:08:57.700Z,9.54
2019-03-16T03:09:23.813Z,9.68
2019-03-16T03:09:49.928Z,9.59
2019-03-16T03:10:16.091Z,9.72
2019-03-16T03:10:42.246Z,9.72
2019-03-16T03:11:08.355Z,9.64
2019-03-16T03:11:34.461Z,9.74
2019-03-16T03:12:00.570Z,9.73
2019-03-16T03:12:26.676Z,9.73
2019-03-16T03:12:52.810Z,9.68
2019-03-16T03:13:19.638Z,9.68
2019-03-16T03:13:45.813Z,9.83
2019-03-16T03:14:11.948Z,9.82
2019-03-16T03:14:38.062Z,9.8
2019-03-16T03:15:04.223Z,9.84
2019-03-16T03:15:30.359Z,9.89
2019-03-16T03:15:56.485Z,9.95
2019-03-16T03:16:22.597Z,9.98
2019-03-16T03:16:48.735Z,9.83
2019-03-16T03:17:14.879Z,9.8
2019-03-16T03:17:40.987Z,9.91
2019-03-16T03:18:07.125Z,9.86
2019-03-16T03:18:33.330Z,9.97
2019-03-16T03:19:00.457Z,9.94
2019-03-16T03:19:26.604Z,9.91
2019-03-16T03:19:52.711Z,9.94
2019-03-16T03:20:18.828Z,9.92
2019-03-16T03:20:44.972Z,9.84
2019-03-16T03:21:11.043Z,9.98
2019-03-16T03:21:37.153Z,9.87
2019-03-16T03:22:03.324Z,9.95
2019-03-16T03:22:29.462Z,9.92
2019-03-16T03:22:55.571Z,9.82
2019-03-16T03:23:21.727Z,9.84
2019-03-16T03:23:47.841Z,9.92
2019-03-16T03:24:13.954Z,9.82
2019-03-16T03:24:43.870Z,9.92
2019-03-16T03:25:07.192Z,9.97
2019-03-16T03:25:33.338Z,9.97
2019-03-16T03:25:59.455Z,9.97
2019-03-16T03:26:25.548Z,9.95
2019-03-16T03:26:51.667Z,9.94
2019-03-16T03:27:17.862Z,10.01
2019-03-16T03:27:43.964Z,9.97
2019-03-16T03:28:10.126Z,9.92
2019-03-16T03:28:36.242Z,9.99
2019-03-16T03:29:02.350Z,9.95
2019-03-16T03:29:28.468Z,10.01
2019-03-16T03:29:57.205Z,9.94
2019-03-16T03:30:21.722Z,9.94
2019-03-16T03:30:47.937Z,9.89
2019-03-16T03:31:14.295Z,9.84
2019-03-16T03:31:40.517Z,9.8
2019-03-16T03:32:06.681Z,9.66
2019-03-16T03:32:32.959Z,9.74
2019-03-16T03:32:59.070Z,9.77
2019-03-16T03:33:25.461Z,9.82
2019-03-16T03:34:01.259Z,9.83
2019-03-16T03:34:22.678Z,9.8
2019-03-16T03:34:48.823Z,9.82
2019-03-16T03:35:14.953Z,9.84
2019-03-16T03:35:41.071Z,9.8
2019-03-16T03:36:07.183Z,9.74
2019-03-16T03:36:33.296Z,9.66
2019-03-16T03:36:59.391Z,9.61
2019-03-16T03:37:25.496Z,9.72
2019-03-16T03:37:51.608Z,9.79
2019-03-16T03:38:17.720Z,9.76
2019-03-16T03:38:43.846Z,9.83
2019-03-16T03:39:09.952Z,9.68
2019-03-16T03:39:36.055Z,9.69
2019-03-16T03:40:02.200Z,9.65
2019-03-16T03:40:28.418Z,9.76
2019-03-16T03:40:54.580Z,9.79
2019-03-16T03:41:21.686Z,9.76
2019-03-16T03:41:47.790Z,9.82
2019-03-16T03:42:13.897Z,9.86
2019-03-16T03:42:40.041Z,9.79
2019-03-16T03:43:06.196Z,9.82
2019-03-16T03:43:32.334Z,9.8
2019-03-16T03:43:58.497Z,9.89
2019-03-16T03:44:24.612Z,9.86
2019-03-16T03:44:50.721Z,9.76
2019-03-16T03:45:16.893Z,9.69
2019-03-16T03:45:43.049Z,9.64
2019-03-16T03:46:09.192Z,9.65
2019-03-16T03:46:36.346Z,9.68
2019-03-16T03:47:02.453Z,9.68
2019-03-16T03:47:28.562Z,9.74
2019-03-16T03:47:54.680Z,9.66
2019-03-16T03:48:20.791Z,9.74
2019-03-16T03:48:46.902Z,9.79
2019-03-16T03:49:13.005Z,9.77
2019-03-16T03:49:39.149Z,9.84
2019-03-16T03:50:05.266Z,9.79
2019-03-16T03:50:31.523Z,9.87
2019-03-16T03:50:57.583Z,9.79
2019-03-16T03:51:23.751Z,9.92
2019-03-16T03:51:49.909Z,9.82
2019-03-16T03:52:16.018Z,9.89
2019-03-16T03:52:42.121Z,9.86
2019-03-16T03:53:08.235Z,9.74
2019-03-16T03:53:34.348Z,9.69
2019-03-16T03:54:01.472Z,9.69
2019-03-16T03:54:27.581Z,9.73
2019-03-16T03:54:53.722Z,9.79
2019-03-16T03:55:19.855Z,9.84
2019-03-16T03:55:45.958Z,9.83
2019-03-16T03:56:12.127Z,9.83
2019-03-16T03:56:38.271Z,9.79
2019-03-16T03:57:04.377Z,9.8
2019-03-16T03:57:30.479Z,9.82
2019-03-16T03:57:56.595Z,9.86
2019-03-16T03:58:22.702Z,9.82
2019-03-16T03:58:48.860Z,9.69
2019-03-16T03:59:14.994Z,9.73
2019-03-16T03:59:41.128Z,9.66
2019-03-16T04:00:07.230Z,9.59
2019-03-16T04:00:33.370Z,9.62
2019-03-16T04:00:59.555Z,9.65
2019-03-16T04:01:25.699Z,9.65
2019-03-16T04:01:51.799Z,9.72
2019-03-16T04:02:17.941Z,9.61
2019-03-16T04:02:44.087Z,9.59
2019-03-16T04:03:10.207Z,9.66
2019-03-16T04:03:36.383Z,9.72
2019-03-16T04:04:14.698Z,9.59
2019-03-16T04:04:31.608Z,9.59
2019-03-16T04:04:57.711Z,9.61
2019-03-16T04:05:23.920Z,9.61
2019-03-16T04:05:50.012Z,9.62
2019-03-16T04:06:16.121Z,9.59
2019-03-16T04:06:42.239Z,9.59
2019-03-16T04:07:08.335Z,9.66
2019-03-16T04:07:35.465Z,9.77
2019-03-16T04:08:01.580Z,9.76
2019-03-16T04:08:27.683Z,9.79
2019-03-16T04:08:53.795Z,9.65
2019-03-16T04:09:19.907Z,9.74
2019-03-16T04:09:46.032Z,9.82
2019-03-16T04:10:12.207Z,9.8
2019-03-16T04:10:38.363Z,9.87
2019-03-16T04:11:04.466Z,9.89
2019-03-16T04:11:30.597Z,9.8
2019-03-16T04:11:56.689Z,9.86
2019-03-16T04:12:22.830Z,9.91
2019-03-16T04:12:48.972Z,9.82
2019-03-16T04:13:15.132Z,9.86
2019-03-16T04:13:41.247Z,9.91
2019-03-16T04:14:07.351Z,9.83
2019-03-16T04:14:33.482Z,9.97
2019-03-16T04:14:59.586Z,9.86
2019-03-16T04:15:25.704Z,9.86
2019-03-16T04:15:51.836Z,9.82
2019-03-16T04:16:17.941Z,9.89
2019-03-16T04:16:44.084Z,9.91
2019-03-16T04:17:10.199Z,9.86
2019-03-16T04:17:36.308Z,9.86
2019-03-16T04:18:02.408Z,9.83
2019-03-16T04:18:28.546Z,9.83
2019-03-16T04:18:55.642Z,9.89
2019-03-16T04:19:21.792Z,9.82
2019-03-16T04:19:47.928Z,9.91
2019-03-16T04:20:14.071Z,9.79
2019-03-16T04:20:40.232Z,9.83
2019-03-16T04:21:06.363Z,9.77
2019-03-16T04:21:32.504Z,9.8
2019-03-16T04:21:58.634Z,9.83
2019-03-16T04:22:24.738Z,9.84
2019-03-16T04:22:50.984Z,9.82
2019-03-16T04:23:17.121Z,9.89
2019-03-16T04:23:43.304Z,9.79
2019-03-16T04:24:09.452Z,9.86
2019-03-16T04:24:35.564Z,9.97
2019-03-16T04:25:02.660Z,9.97
2019-03-16T04:25:28.799Z,9.92
2019-03-16T04:25:54.965Z,9.95
2019-03-16T04:26:21.106Z,9.92
2019-03-16T04:26:47.244Z,9.82
2019-03-16T04:27:16.705Z,9.77
2019-03-16T04:27:42.447Z,9.83
2019-03-16T04:28:08.610Z,9.84
2019-03-16T04:28:34.713Z,9.83
2019-03-16T04:29:00.881Z,9.83
2019-03-16T04:29:27.026Z,9.91
2019-03-16T04:29:53.187Z,9.77
2019-03-16T04:30:19.290Z,9.62
2019-03-16T04:30:45.432Z,9.64
2019-03-16T04:31:11.539Z,9.68
2019-03-16T04:31:37.645Z,9.65
2019-03-16T04:32:03.783Z,9.69
2019-03-16T04:32:29.862Z,9.79
2019-03-16T04:32:55.998Z,9.8
2019-03-16T04:33:22.131Z,9.79
2019-03-16T04:33:48.234Z,9.8
2019-03-16T04:34:27.988Z,9.8
2019-03-16T04:34:44.994Z,9.86
2019-03-16T04:35:10.842Z,9.79
2019-03-16T04:35:36.957Z,9.86
2019-03-16T04:36:03.064Z,9.79
2019-03-16T04:36:29.163Z,9.79
2019-03-16T04:36:55.274Z,9.79
2019-03-16T04:37:21.377Z,9.82
2019-03-16T04:37:47.522Z,9.86
2019-03-16T04:38:13.659Z,9.77
2019-03-16T04:38:39.802Z,9.72
2019-03-16T04:39:05.909Z,9.74
2019-03-16T04:39:32.019Z,9.72
2019-03-16T04:39:58.132Z,9.87
2019-03-16T04:40:24.259Z,9.95
2019-03-16T04:40:50.405Z,9.92
2019-03-16T04:41:16.508Z,9.95
2019-03-16T04:41:42.623Z,9.91
2019-03-16T04:42:08.727Z,9.84
2019-03-16T04:42:34.842Z,9.82
2019-03-16T04:43:00.941Z,9.8
2019-03-16T04:43:27.051Z,9.77
2019-03-16T04:43:53.179Z,9.74
2019-03-16T04:44:19.294Z,9.79
2019-03-16T04:44:45.399Z,9.56
2019-03-16T04:45:11.527Z,9.62
2019-03-16T04:45:37.612Z,9.62
2019-03-16T04:46:03.742Z,9.61
2019-03-16T04:46:31.341Z,9.58
2019-03-16T04:46:56.933Z,9.58
2019-03-16T04:47:23.041Z,9.59
2019-03-16T04:47:49.169Z,9.51
2019-03-16T04:48:15.284Z,9.55
2019-03-16T04:48:41.391Z,9.51
2019-03-16T04:49:07.532Z,9.58
2019-03-16T04:49:33.645Z,9.56
2019-03-16T04:49:59.753Z,9.59
2019-03-16T04:50:25.867Z,9.74
2019-03-16T04:50:51.973Z,9.73
2019-03-16T04:51:18.124Z,9.74
2019-03-16T04:51:44.283Z,9.64
2019-03-16T04:52:10.393Z,9.72
2019-03-16T04:52:36.512Z,9.72
2019-03-16T04:53:02.629Z,9.66
2019-03-16T04:53:28.736Z,9.73
2019-03-16T04:53:54.842Z,9.76
2019-03-16T04:54:20.946Z,9.66
2019-03-16T04:54:47.055Z,9.68
2019-03-16T04:55:13.163Z,9.61
2019-03-16T04:55:39.272Z,9.69
2019-03-16T04:56:05.380Z,9.66
2019-03-16T04:56:31.483Z,9.76
2019-03-16T04:56:57.629Z,9.8
2019-03-16T04:57:23.731Z,9.83
2019-03-16T04:57:49.841Z,9.79
2019-03-16T04:58:15.977Z,9.8
2019-03-16T04:58:42.120Z,9.79
2019-03-16T04:59:08.229Z,9.8
2019-03-16T04:59:34.338Z,9.89
2019-03-16T05:00:00.569Z,9.83
2019-03-16T05:00:26.567Z,9.79
2019-03-16T05:00:52.675Z,9.84
2019-03-16T05:01:18.782Z,9.84
2019-03-16T05:01:44.886Z,9.86
2019-03-16T05:02:10.997Z,9.77
2019-03-16T05:02:37.109Z,9.66
2019-03-16T05:03:03.211Z,9.69
2019-03-16T05:03:29.632Z,9.77
2019-03-16T05:03:55.736Z,9.77
2019-03-16T05:04:21.853Z,9.69
2019-03-16T05:04:49.936Z,9.79
2019-03-16T05:05:16.152Z,9.86
2019-03-16T05:05:42.268Z,9.82
2019-03-16T05:06:08.373Z,9.72
2019-03-16T05:06:34.493Z,9.72
2019-03-16T05:07:00.637Z,9.77
2019-03-16T05:07:26.746Z,9.76
2019-03-16T05:07:52.850Z,9.77
2019-03-16T05:08:19.017Z,9.77
2019-03-16T05:08:45.124Z,9.8
2019-03-16T05:09:11.264Z,9.76
2019-03-16T05:09:37.369Z,9.79
2019-03-16T05:10:03.485Z,9.8
2019-03-16T05:10:29.586Z,9.83
2019-03-16T05:10:55.699Z,9.86
2019-03-16T05:11:21.808Z,9.83
2019-03-16T05:11:47.915Z,9.84
2019-03-16T05:12:14.016Z,9.73
2019-03-16T05:12:40.160Z,9.73
2019-03-16T05:13:06.293Z,9.72
2019-03-16T05:13:32.450Z,9.68
2019-03-16T05:13:58.554Z,9.61
2019-03-16T05:14:24.666Z,9.65
2019-03-16T05:14:50.777Z,9.73
2019-03-16T05:15:16.882Z,9.55
2019-03-16T05:15:42.992Z,9.56
2019-03-16T05:16:10.082Z,9.44
2019-03-16T05:16:36.226Z,9.55
2019-03-16T05:17:02.327Z,9.65
2019-03-16T05:17:28.435Z,9.61
2019-03-16T05:17:54.545Z,9.61
2019-03-16T05:18:20.656Z,9.65
2019-03-16T05:18:46.758Z,9.54
2019-03-16T05:19:12.890Z,9.55
2019-03-16T05:19:38.999Z,9.55
2019-03-16T05:20:05.100Z,9.51
2019-03-16T05:20:31.212Z,9.54
2019-03-16T05:20:57.330Z,9.62
2019-03-16T05:21:23.430Z,9.62
2019-03-16T05:21:49.540Z,9.64
2019-03-16T05:22:15.644Z,9.59
2019-03-16T05:22:41.760Z,9.65
2019-03-16T05:23:07.863Z,9.72
2019-03-16T05:23:33.981Z,9.59
2019-03-16T05:24:02.699Z,9.66
2019-03-16T05:24:27.195Z,9.65
2019-03-16T05:24:53.295Z,9.72
2019-03-16T05:25:19.402Z,9.74
2019-03-16T05:25:45.512Z,9.58
2019-03-16T05:26:11.621Z,9.74
2019-03-16T05:26:37.732Z,9.72
2019-03-16T05:27:03.836Z,9.58
2019-03-16T05:27:29.961Z,9.66
2019-03-16T05:27:56.058Z,9.64
2019-03-16T05:28:22.165Z,9.64
2019-03-16T05:28:48.272Z,9.68
2019-03-16T05:29:14.444Z,9.58
2019-03-16T05:29:40.557Z,9.56
2019-03-16T05:30:06.673Z,9.62
2019-03-16T05:30:32.783Z,9.61
2019-03-16T05:30:58.891Z,9.73
2019-03-16T05:31:25.016Z,9.62
2019-03-16T05:31:51.129Z,9.65
2019-03-16T05:32:17.246Z,9.59
2019-03-16T05:32:43.343Z,9.59
2019-03-16T05:33:09.453Z,9.62
2019-03-16T05:33:35.602Z,9.65
2019-03-16T05:34:01.741Z,9.69
2019-03-16T05:34:27.843Z,9.66
2019-03-16T05:34:56.936Z,9.76
2019-03-16T05:35:23.032Z,9.84
2019-03-16T05:35:49.170Z,9.73
2019-03-16T05:36:15.304Z,9.87
2019-03-16T05:36:41.415Z,9.91
2019-03-16T05:37:07.511Z,9.89
2019-03-16T05:37:33.624Z,9.94
2019-03-16T05:37:59.753Z,9.99
2019-03-16T05:38:25.867Z,9.99
2019-03-16T05:38:51.999Z,9.97
2019-03-16T05:39:18.115Z,9.83
2019-03-16T05:39:44.218Z,9.77
2019-03-16T05:40:10.336Z,9.74
2019-03-16T05:40:36.440Z,9.8
2019-03-16T05:41:02.546Z,9.74
2019-03-16T05:41:28.661Z,9.72
2019-03-16T05:41:54.765Z,9.72
2019-03-16T05:42:21.217Z,9.64
2019-03-16T05:42:47.321Z,9.65
2019-03-16T05:43:13.432Z,9.61
2019-03-16T05:43:39.581Z,9.54
2019-03-16T05:44:05.751Z,9.58
2019-03-16T05:44:31.861Z,9.51
2019-03-16T05:44:58.090Z,9.59
2019-03-16T05:45:24.321Z,9.65
2019-03-16T05:45:50.462Z,9.76
2019-03-16T05:46:16.621Z,9.79
2019-03-16T05:46:42.726Z,9.83
2019-03-16T05:47:08.839Z,9.86
2019-03-16T05:47:34.941Z,9.89
2019-03-16T05:48:01.058Z,9.95
2019-03-16T05:48:27.159Z,9.84